Hot Springs, Virginia
Current Conditions -  °F | °C
As of 4:55 PM on Friday 24 Oct 2014 (Local Time) from KHSP Reporting Station
Clear Clear  
Wind Chill: 56°   Ceiling: Unl
Heat Index: 56°   Visibility: 10mi
Dew Point: 35°   Wind: 9mph
Humidity: 46%   Direction: 280°W
Pressure: 30"   Gusts: NA
Location:  37.97°N, 79.77°W
Report Text: KHSP 242055Z AUTO 28008KT 10SM CLR 14/02 A3000 RMK AO2 T01350019
Loading
Personal Weather Stations






























Interactive Weather Map
Tropical Storm Tracking
New forecast layout! Learn more

10-Day Weather Forecast

Advertisements
Track Severe Weather on mobile